sensor_id;sensor_type;location;lat;lon;timestamp;pressure;altitude;pressure_sealevel;temperature;humidity
10348;BME280;5220;43.192;23.284;2023-03-29T00:01:11;97475.94;;;4.00;55.06
10348;BME280;5220;43.192;23.284;2023-03-29T00:03:38;97466.16;;;3.87;55.20
10348;BME280;5220;43.192;23.284;2023-03-29T00:06:08;97474.06;;;3.82;54.78
10348;BME280;5220;43.192;23.284;2023-03-29T00:08:40;97466.84;;;3.68;54.30
10348;BME280;5220;43.192;23.284;2023-03-29T00:11:07;97475.22;;;3.97;54.45
10348;BME280;5220;43.192;23.284;2023-03-29T00:13:33;97479.03;;;4.08;54.82
10348;BME280;5220;43.192;23.284;2023-03-29T00:16:02;97474.13;;;4.02;54.23
10348;BME280;5220;43.192;23.284;2023-03-29T00:18:29;97471.63;;;4.22;54.60
10348;BME280;5220;43.192;23.284;2023-03-29T00:20:55;97478.25;;;4.28;54.62
10348;BME280;5220;43.192;23.284;2023-03-29T00:23:23;97479.59;;;4.16;54.16
10348;BME280;5220;43.192;23.284;2023-03-29T00:25:51;97477.03;;;4.37;53.67
10348;BME280;5220;43.192;23.284;2023-03-29T00:28:18;97468.19;;;4.44;53.96
10348;BME280;5220;43.192;23.284;2023-03-29T00:30:45;97478.09;;;4.32;53.39
10348;BME280;5220;43.192;23.284;2023-03-29T00:33:13;97469.44;;;3.90;54.26
10348;BME280;5220;43.192;23.284;2023-03-29T00:35:40;97480.09;;;3.81;55.03
10348;BME280;5220;43.192;23.284;2023-03-29T00:38:07;97471.72;;;3.76;55.32
10348;BME280;5220;43.192;23.284;2023-03-29T00:40:34;97472.75;;;3.94;54.58
10348;BME280;5220;43.192;23.284;2023-03-29T00:43:09;97474.69;;;4.10;54.89
10348;BME280;5220;43.192;23.284;2023-03-29T00:45:35;97474.88;;;3.61;55.86
10348;BME280;5220;43.192;23.284;2023-03-29T00:48:04;97465.84;;;3.72;56.33
10348;BME280;5220;43.192;23.284;2023-03-29T00:50:35;97465.22;;;3.89;56.05
10348;BME280;5220;43.192;23.284;2023-03-29T00:53:07;97467.03;;;3.41;55.92
10348;BME280;5220;43.192;23.284;2023-03-29T00:55:37;97466.94;;;3.67;55.89
10348;BME280;5220;43.192;23.284;2023-03-29T00:58:08;97471.28;;;3.65;55.74
10348;BME280;5220;43.192;23.284;2023-03-29T01:00:43;97462.41;;;3.50;54.94
10348;BME280;5220;43.192;23.284;2023-03-29T01:03:13;97467.03;;;3.64;56.46
10348;BME280;5220;43.192;23.284;2023-03-29T01:05:53;97476.41;;;3.65;56.69
10348;BME280;5220;43.192;23.284;2023-03-29T01:08:23;97467.59;;;3.25;57.74
10348;BME280;5220;43.192;23.284;2023-03-29T01:10:54;97470.00;;;3.76;56.51
10348;BME280;5220;43.192;23.284;2023-03-29T01:13:26;97475.16;;;3.98;56.00
10348;BME280;5220;43.192;23.284;2023-03-29T01:16:00;97476.09;;;4.17;55.17
10348;BME280;5220;43.192;23.284;2023-03-29T01:18:27;97476.53;;;4.28;55.68
10348;BME280;5220;43.192;23.284;2023-03-29T01:21:08;97468.59;;;4.33;55.18
10348;BME280;5220;43.192;23.284;2023-03-29T01:23:52;97480.44;;;3.95;55.65
10348;BME280;5220;43.192;23.284;2023-03-29T01:26:38;97478.03;;;3.67;55.43
10348;BME280;5220;43.192;23.284;2023-03-29T01:29:12;97474.56;;;3.92;55.85
10348;BME280;5220;43.192;23.284;2023-03-29T01:31:43;97471.31;;;4.08;55.47
10348;BME280;5220;43.192;23.284;2023-03-29T01:34:14;97477.97;;;4.14;56.18
10348;BME280;5220;43.192;23.284;2023-03-29T01:36:46;97468.22;;;4.00;55.46
10348;BME280;5220;43.192;23.284;2023-03-29T01:39:15;97476.63;;;3.82;57.53
10348;BME280;5220;43.192;23.284;2023-03-29T01:41:47;97481.25;;;3.96;55.80
10348;BME280;5220;43.192;23.284;2023-03-29T01:44:25;97492.97;;;4.03;55.59
10348;BME280;5220;43.192;23.284;2023-03-29T01:47:01;97477.75;;;3.75;54.73
10348;BME280;5220;43.192;23.284;2023-03-29T01:49:37;97485.72;;;3.69;56.48
10348;BME280;5220;43.192;23.284;2023-03-29T01:52:12;97480.44;;;3.95;55.50
10348;BME280;5220;43.192;23.284;2023-03-29T01:54:43;97486.03;;;4.05;55.35
10348;BME280;5220;43.192;23.284;2023-03-29T01:57:14;97485.75;;;4.12;56.09
10348;BME280;5220;43.192;23.284;2023-03-29T01:59:43;97490.25;;;4.07;56.94
10348;BME280;5220;43.192;23.284;2023-03-29T02:02:14;97496.00;;;3.92;57.97
10348;BME280;5220;43.192;23.284;2023-03-29T02:04:45;97500.81;;;3.78;57.93
10348;BME280;5220;43.192;23.284;2023-03-29T02:07:15;97504.59;;;3.91;58.01
10348;BME280;5220;43.192;23.284;2023-03-29T02:09:42;97515.44;;;3.99;59.17
10348;BME280;5220;43.192;23.284;2023-03-29T02:12:11;97522.38;;;3.97;60.07
10348;BME280;5220;43.192;23.284;2023-03-29T02:14:38;97506.41;;;3.89;61.06
10348;BME280;5220;43.192;23.284;2023-03-29T02:17:14;97509.06;;;3.86;62.10
10348;BME280;5220;43.192;23.284;2023-03-29T02:19:43;97513.44;;;3.84;62.41
10348;BME280;5220;43.192;23.284;2023-03-29T02:22:15;97503.66;;;3.47;67.02
10348;BME280;5220;43.192;23.284;2023-03-29T02:24:46;97507.88;;;3.73;62.17
10348;BME280;5220;43.192;23.284;2023-03-29T02:27:14;97513.75;;;3.76;63.51
10348;BME280;5220;43.192;23.284;2023-03-29T02:29:41;97518.66;;;3.83;62.95
10348;BME280;5220;43.192;23.284;2023-03-29T02:32:15;97525.19;;;3.45;63.67
10348;BME280;5220;43.192;23.284;2023-03-29T02:34:46;97535.53;;;3.66;64.06
10348;BME280;5220;43.192;23.284;2023-03-29T02:37:17;97525.88;;;3.73;64.56
10348;BME280;5220;43.192;23.284;2023-03-29T02:39:47;97533.19;;;3.60;65.21
10348;BME280;5220;43.192;23.284;2023-03-29T02:42:16;97524.53;;;3.63;64.91
10348;BME280;5220;43.192;23.284;2023-03-29T02:44:46;97533.00;;;3.65;66.22
10348;BME280;5220;43.192;23.284;2023-03-29T02:47:20;97531.25;;;3.67;66.14
10348;BME280;5220;43.192;23.284;2023-03-29T02:49:47;97536.50;;;3.64;65.99
10348;BME280;5220;43.192;23.284;2023-03-29T02:52:15;97528.94;;;3.59;66.92
10348;BME280;5220;43.192;23.284;2023-03-29T02:54:44;97523.88;;;3.58;67.61
10348;BME280;5220;43.192;23.284;2023-03-29T02:57:12;97531.22;;;3.44;67.96
10348;BME280;5220;43.192;23.284;2023-03-29T02:59:39;97537.88;;;3.49;68.98
10348;BME280;5220;43.192;23.284;2023-03-29T03:02:08;97533.63;;;3.48;68.83
10348;BME280;5220;43.192;23.284;2023-03-29T03:04:37;97533.91;;;3.41;69.37
10348;BME280;5220;43.192;23.284;2023-03-29T03:07:03;97536.47;;;3.41;69.54
10348;BME280;5220;43.192;23.284;2023-03-29T03:09:30;97530.78;;;3.33;70.91
10348;BME280;5220;43.192;23.284;2023-03-29T03:11:57;97535.09;;;3.31;71.35
10348;BME280;5220;43.192;23.284;2023-03-29T03:14:24;97531.91;;;3.24;70.25
10348;BME280;5220;43.192;23.284;2023-03-29T03:16:52;97525.94;;;3.23;71.26
10348;BME280;5220;43.192;23.284;2023-03-29T03:19:19;97533.81;;;3.19;69.27
10348;BME280;5220;43.192;23.284;2023-03-29T03:21:47;97532.34;;;3.12;71.59
10348;BME280;5220;43.192;23.284;2023-03-29T03:24:15;97533.97;;;3.14;72.49
10348;BME280;5220;43.192;23.284;2023-03-29T03:26:42;97531.13;;;2.97;70.48
10348;BME280;5220;43.192;23.284;2023-03-29T03:29:10;97525.88;;;3.00;72.37
10348;BME280;5220;43.192;23.284;2023-03-29T03:31:37;97532.63;;;3.04;71.83
10348;BME280;5220;43.192;23.284;2023-03-29T03:34:07;97535.38;;;2.98;71.63
10348;BME280;5220;43.192;23.284;2023-03-29T03:36:34;97532.72;;;3.01;70.05
10348;BME280;5220;43.192;23.284;2023-03-29T03:39:02;97539.41;;;3.05;69.72
10348;BME280;5220;43.192;23.284;2023-03-29T03:41:31;97535.13;;;3.06;71.19
10348;BME280;5220;43.192;23.284;2023-03-29T03:43:58;97536.91;;;3.04;72.38
10348;BME280;5220;43.192;23.284;2023-03-29T03:46:24;97549.25;;;2.93;75.01
10348;BME280;5220;43.192;23.284;2023-03-29T03:48:51;97545.88;;;2.92;71.97
10348;BME280;5220;43.192;23.284;2023-03-29T03:51:18;97547.75;;;2.87;72.86
10348;BME280;5220;43.192;23.284;2023-03-29T03:53:44;97547.16;;;2.79;71.74
10348;BME280;5220;43.192;23.284;2023-03-29T03:56:13;97539.25;;;2.85;71.12
10348;BME280;5220;43.192;23.284;2023-03-29T03:58:40;97537.84;;;2.77;70.53
10348;BME280;5220;43.192;23.284;2023-03-29T04:01:07;97544.09;;;2.68;69.49
10348;BME280;5220;43.192;23.284;2023-03-29T04:03:34;97553.09;;;2.81;69.81
10348;BME280;5220;43.192;23.284;2023-03-29T04:06:02;97553.19;;;2.78;70.55
10348;BME280;5220;43.192;23.284;2023-03-29T04:08:29;97551.31;;;2.83;69.23
10348;BME280;5220;43.192;23.284;2023-03-29T04:10:57;97550.63;;;2.78;69.42
10348;BME280;5220;43.192;23.284;2023-03-29T04:13:26;97555.84;;;2.75;70.41
10348;BME280;5220;43.192;23.284;2023-03-29T04:15:53;97550.78;;;2.74;71.91
10348;BME280;5220;43.192;23.284;2023-03-29T04:18:21;97551.47;;;2.79;71.25
10348;BME280;5220;43.192;23.284;2023-03-29T04:20:48;97552.31;;;2.79;71.55
10348;BME280;5220;43.192;23.284;2023-03-29T04:23:15;97553.44;;;2.70;72.14
10348;BME280;5220;43.192;23.284;2023-03-29T04:25:42;97555.75;;;2.78;71.83
10348;BME280;5220;43.192;23.284;2023-03-29T04:28:09;97554.09;;;2.77;72.59
10348;BME280;5220;43.192;23.284;2023-03-29T04:30:38;97556.69;;;2.76;72.27
10348;BME280;5220;43.192;23.284;2023-03-29T04:33:05;97560.84;;;2.80;71.66
10348;BME280;5220;43.192;23.284;2023-03-29T04:35:32;97571.22;;;2.77;70.89
10348;BME280;5220;43.192;23.284;2023-03-29T04:37:59;97563.84;;;2.66;68.19
10348;BME280;5220;43.192;23.284;2023-03-29T04:40:26;97580.16;;;2.65;70.20
10348;BME280;5220;43.192;23.284;2023-03-29T04:42:53;97580.78;;;2.71;71.85
10348;BME280;5220;43.192;23.284;2023-03-29T04:45:20;97574.00;;;2.70;69.87
10348;BME280;5220;43.192;23.284;2023-03-29T04:47:48;97568.00;;;2.70;71.98
10348;BME280;5220;43.192;23.284;2023-03-29T04:50:14;97569.63;;;2.72;70.80
10348;BME280;5220;43.192;23.284;2023-03-29T04:52:41;97578.13;;;2.75;72.30
10348;BME280;5220;43.192;23.284;2023-03-29T04:55:09;97574.22;;;2.63;71.86
10348;BME280;5220;43.192;23.284;2023-03-29T04:57:36;97579.03;;;2.74;69.56
10348;BME280;5220;43.192;23.284;2023-03-29T05:00:04;97571.25;;;2.75;71.81
10348;BME280;5220;43.192;23.284;2023-03-29T05:02:39;97585.59;;;2.82;70.27
10348;BME280;5220;43.192;23.284;2023-03-29T05:05:07;97584.75;;;2.82;69.74
10348;BME280;5220;43.192;23.284;2023-03-29T05:07:34;97594.19;;;2.81;69.80
10348;BME280;5220;43.192;23.284;2023-03-29T05:10:01;97593.34;;;2.81;69.23
10348;BME280;5220;43.192;23.284;2023-03-29T05:12:28;97587.88;;;2.91;68.96
10348;BME280;5220;43.192;23.284;2023-03-29T05:14:55;97594.84;;;2.88;66.71
10348;BME280;5220;43.192;23.284;2023-03-29T05:17:22;97595.28;;;3.00;65.91
10348;BME280;5220;43.192;23.284;2023-03-29T05:19:51;97597.81;;;3.02;67.23
10348;BME280;5220;43.192;23.284;2023-03-29T05:22:19;97589.94;;;3.06;69.88
10348;BME280;5220;43.192;23.284;2023-03-29T05:24:47;97598.63;;;3.02;66.48
10348;BME280;5220;43.192;23.284;2023-03-29T05:27:14;97598.16;;;3.17;63.00
10348;BME280;5220;43.192;23.284;2023-03-29T05:29:42;97603.50;;;3.36;62.03
10348;BME280;5220;43.192;23.284;2023-03-29T05:32:10;97602.34;;;3.45;62.44
10348;BME280;5220;43.192;23.284;2023-03-29T05:34:37;97600.34;;;3.53;60.45
10348;BME280;5220;43.192;23.284;2023-03-29T05:37:04;97602.78;;;3.56;57.29
10348;BME280;5220;43.192;23.284;2023-03-29T05:39:32;97604.00;;;3.70;57.60
10348;BME280;5220;43.192;23.284;2023-03-29T05:42:02;97603.72;;;3.55;57.14
10348;BME280;5220;43.192;23.284;2023-03-29T05:44:28;97609.09;;;3.22;55.37
10348;BME280;5220;43.192;23.284;2023-03-29T05:46:55;97604.19;;;4.57;71.84
10348;BME280;5220;43.192;23.284;2023-03-29T05:49:22;97608.31;;;4.16;57.24
10348;BME280;5220;43.192;23.284;2023-03-29T05:51:49;97607.59;;;4.13;56.93
10348;BME280;5220;43.192;23.284;2023-03-29T05:54:16;97610.63;;;4.01;54.69
10348;BME280;5220;43.192;23.284;2023-03-29T05:56:44;97609.75;;;3.77;53.82
10348;BME280;5220;43.192;23.284;2023-03-29T05:59:11;97607.66;;;3.88;54.64
10348;BME280;5220;43.192;23.284;2023-03-29T06:01:39;97598.13;;;4.13;54.82
10348;BME280;5220;43.192;23.284;2023-03-29T06:04:06;97616.09;;;4.15;54.69
10348;BME280;5220;43.192;23.284;2023-03-29T06:06:32;97609.88;;;4.20;53.81
10348;BME280;5220;43.192;23.284;2023-03-29T06:09:00;97614.78;;;4.50;53.52
10348;BME280;5220;43.192;23.284;2023-03-29T06:11:26;97607.03;;;4.50;51.13
10348;BME280;5220;43.192;23.284;2023-03-29T06:13:54;97609.13;;;4.62;52.49
10348;BME280;5220;43.192;23.284;2023-03-29T06:16:21;97620.06;;;4.68;50.80
10348;BME280;5220;43.192;23.284;2023-03-29T06:18:48;97622.38;;;4.96;50.71
10348;BME280;5220;43.192;23.284;2023-03-29T06:21:15;97622.75;;;4.87;50.36
10348;BME280;5220;43.192;23.284;2023-03-29T06:23:42;97617.06;;;5.21;50.42
10348;BME280;5220;43.192;23.284;2023-03-29T06:26:09;97616.38;;;5.37;48.98
10348;BME280;5220;43.192;23.284;2023-03-29T06:28:37;97618.19;;;4.94;48.75
10348;BME280;5220;43.192;23.284;2023-03-29T06:31:05;97623.34;;;4.94;49.80
10348;BME280;5220;43.192;23.284;2023-03-29T06:33:34;97601.50;;;5.02;50.55
10348;BME280;5220;43.192;23.284;2023-03-29T06:36:02;97624.69;;;5.44;49.32
10348;BME280;5220;43.192;23.284;2023-03-29T06:38:29;97610.81;;;5.47;49.98
10348;BME280;5220;43.192;23.284;2023-03-29T06:41:00;97611.94;;;5.41;48.33
10348;BME280;5220;43.192;23.284;2023-03-29T06:43:27;97615.72;;;5.53;48.59
10348;BME280;5220;43.192;23.284;2023-03-29T06:45:54;97617.66;;;5.27;48.35
10348;BME280;5220;43.192;23.284;2023-03-29T06:48:22;97615.59;;;5.56;47.64
10348;BME280;5220;43.192;23.284;2023-03-29T06:50:49;97606.69;;;5.63;47.26
10348;BME280;5220;43.192;23.284;2023-03-29T06:53:16;97608.88;;;5.72;45.76
10348;BME280;5220;43.192;23.284;2023-03-29T06:55:43;97621.50;;;5.98;45.42
10348;BME280;5220;43.192;23.284;2023-03-29T06:58:10;97617.53;;;5.91;45.78
10348;BME280;5220;43.192;23.284;2023-03-29T07:00:36;97613.88;;;6.15;45.15
10348;BME280;5220;43.192;23.284;2023-03-29T07:03:06;97597.31;;;6.19;45.50
10348;BME280;5220;43.192;23.284;2023-03-29T07:05:36;97612.31;;;6.30;44.26
10348;BME280;5220;43.192;23.284;2023-03-29T07:08:05;97609.53;;;6.34;45.32
10348;BME280;5220;43.192;23.284;2023-03-29T07:10:39;97614.28;;;6.43;45.17
10348;BME280;5220;43.192;23.284;2023-03-29T07:13:08;97617.91;;;6.39;43.74
10348;BME280;5220;43.192;23.284;2023-03-29T07:15:36;97610.78;;;6.44;43.37
10348;BME280;5220;43.192;23.284;2023-03-29T07:18:03;97607.84;;;6.52;43.63
10348;BME280;5220;43.192;23.284;2023-03-29T07:20:30;97598.22;;;6.56;42.86
10348;BME280;5220;43.192;23.284;2023-03-29T07:22:59;97608.53;;;6.56;44.32
10348;BME280;5220;43.192;23.284;2023-03-29T07:25:26;97610.69;;;6.65;44.26
10348;BME280;5220;43.192;23.284;2023-03-29T07:27:54;97611.53;;;6.65;42.43
10348;BME280;5220;43.192;23.284;2023-03-29T07:30:22;97607.97;;;6.68;42.63
10348;BME280;5220;43.192;23.284;2023-03-29T07:32:50;97606.44;;;6.45;41.47
10348;BME280;5220;43.192;23.284;2023-03-29T07:35:17;97600.44;;;6.44;41.83
10348;BME280;5220;43.192;23.284;2023-03-29T07:37:44;97612.16;;;6.70;44.42
10348;BME280;5220;43.192;23.284;2023-03-29T07:40:15;97594.06;;;7.06;42.63
10348;BME280;5220;43.192;23.284;2023-03-29T07:42:44;97588.63;;;6.93;42.39
10348;BME280;5220;43.192;23.284;2023-03-29T07:45:13;97600.44;;;7.16;40.28
10348;BME280;5220;43.192;23.284;2023-03-29T07:47:41;97591.84;;;7.33;41.29
10348;BME280;5220;43.192;23.284;2023-03-29T07:50:09;97603.94;;;7.49;41.71
10348;BME280;5220;43.192;23.284;2023-03-29T07:52:36;97602.84;;;7.53;39.93
10348;BME280;5220;43.192;23.284;2023-03-29T07:55:05;97607.13;;;7.54;39.10
10348;BME280;5220;43.192;23.284;2023-03-29T07:57:33;97596.78;;;7.20;37.70
10348;BME280;5220;43.192;23.284;2023-03-29T08:00:01;97603.75;;;7.01;36.32
10348;BME280;5220;43.192;23.284;2023-03-29T08:02:36;97604.88;;;6.78;35.24
10348;BME280;5220;43.192;23.284;2023-03-29T08:05:04;97600.78;;;6.91;36.02
10348;BME280;5220;43.192;23.284;2023-03-29T08:07:31;97604.69;;;7.00;36.41
10348;BME280;5220;43.192;23.284;2023-03-29T08:09:57;97588.88;;;7.06;35.46
10348;BME280;5220;43.192;23.284;2023-03-29T08:12:24;97590.25;;;7.30;35.26
10348;BME280;5220;43.192;23.284;2023-03-29T08:14:52;97580.06;;;7.27;35.60
10348;BME280;5220;43.192;23.284;2023-03-29T08:17:19;97588.44;;;7.15;34.17
10348;BME280;5220;43.192;23.284;2023-03-29T08:19:46;97594.72;;;6.92;33.29
10348;BME280;5220;43.192;23.284;2023-03-29T08:22:12;97583.25;;;7.15;33.73
10348;BME280;5220;43.192;23.284;2023-03-29T08:24:39;97596.09;;;7.17;32.78
10348;BME280;5220;43.192;23.284;2023-03-29T08:27:06;97584.09;;;7.33;33.96
10348;BME280;5220;43.192;23.284;2023-03-29T08:29:33;97588.09;;;7.38;34.09
10348;BME280;5220;43.192;23.284;2023-03-29T08:32:01;97588.41;;;7.49;34.89
10348;BME280;5220;43.192;23.284;2023-03-29T08:34:28;97584.47;;;7.25;33.50
10348;BME280;5220;43.192;23.284;2023-03-29T08:36:56;97594.28;;;7.36;33.99
10348;BME280;5220;43.192;23.284;2023-03-29T08:39:23;97590.84;;;7.52;34.64
10348;BME280;5220;43.192;23.284;2023-03-29T08:42:11;97592.28;;;7.58;33.09
10348;BME280;5220;43.192;23.284;2023-03-29T08:44:51;97589.47;;;7.63;32.40
10348;BME280;5220;43.192;23.284;2023-03-29T08:47:30;97586.28;;;7.57;32.42
10348;BME280;5220;43.192;23.284;2023-03-29T08:50:00;97585.25;;;7.77;33.63
10348;BME280;5220;43.192;23.284;2023-03-29T08:52:32;97586.31;;;7.90;32.10
10348;BME280;5220;43.192;23.284;2023-03-29T08:55:02;97585.31;;;7.76;31.21
10348;BME280;5220;43.192;23.284;2023-03-29T08:57:33;97584.22;;;7.97;32.24
10348;BME280;5220;43.192;23.284;2023-03-29T09:00:06;97581.13;;;7.90;32.17
10348;BME280;5220;43.192;23.284;2023-03-29T09:02:42;97581.00;;;8.09;31.90
10348;BME280;5220;43.192;23.284;2023-03-29T09:05:17;97588.75;;;8.09;31.12
10348;BME280;5220;43.192;23.284;2023-03-29T09:07:46;97592.13;;;8.27;32.77
10348;BME280;5220;43.192;23.284;2023-03-29T09:10:15;97574.19;;;8.06;30.91
10348;BME280;5220;43.192;23.284;2023-03-29T09:12:49;97577.31;;;7.80;30.34
10348;BME280;5220;43.192;23.284;2023-03-29T09:15:23;97579.97;;;7.79;29.00
10348;BME280;5220;43.192;23.284;2023-03-29T09:18:01;97589.56;;;7.94;30.89
10348;BME280;5220;43.192;23.284;2023-03-29T09:20:37;97577.22;;;7.82;30.62
10348;BME280;5220;43.192;23.284;2023-03-29T09:23:23;97582.81;;;8.07;30.25
10348;BME280;5220;43.192;23.284;2023-03-29T09:25:58;97576.22;;;8.17;30.87
10348;BME280;5220;43.192;23.284;2023-03-29T09:28:31;97587.94;;;8.24;30.83
10348;BME280;5220;43.192;23.284;2023-03-29T09:31:02;97575.38;;;8.17;29.49
10348;BME280;5220;43.192;23.284;2023-03-29T09:33:39;97569.63;;;8.27;30.07
10348;BME280;5220;43.192;23.284;2023-03-29T09:36:09;97586.06;;;8.43;31.30
10348;BME280;5220;43.192;23.284;2023-03-29T09:38:40;97579.44;;;8.38;29.94
10348;BME280;5220;43.192;23.284;2023-03-29T09:41:18;97578.84;;;8.64;30.76
10348;BME280;5220;43.192;23.284;2023-03-29T09:43:48;97583.69;;;8.86;30.69
10348;BME280;5220;43.192;23.284;2023-03-29T09:46:19;97573.88;;;8.91;30.59
10348;BME280;5220;43.192;23.284;2023-03-29T09:48:49;97584.84;;;8.96;30.21
10348;BME280;5220;43.192;23.284;2023-03-29T09:51:18;97569.53;;;8.91;30.51
10348;BME280;5220;43.192;23.284;2023-03-29T09:53:47;97579.22;;;9.03;29.82
10348;BME280;5220;43.192;23.284;2023-03-29T09:56:14;97569.00;;;9.00;29.75
10348;BME280;5220;43.192;23.284;2023-03-29T09:58:41;97569.81;;;8.87;29.21
10348;BME280;5220;43.192;23.284;2023-03-29T10:01:11;97571.88;;;8.96;28.42
10348;BME280;5220;43.192;23.284;2023-03-29T10:03:40;97571.09;;;8.94;27.46
10348;BME280;5220;43.192;23.284;2023-03-29T10:06:10;97569.81;;;9.16;28.94
10348;BME280;5220;43.192;23.284;2023-03-29T10:08:39;97556.75;;;9.18;29.15
10348;BME280;5220;43.192;23.284;2023-03-29T10:11:11;97566.00;;;9.22;28.55
10348;BME280;5220;43.192;23.284;2023-03-29T10:13:43;97558.31;;;8.91;28.65
10348;BME280;5220;43.192;23.284;2023-03-29T10:16:17;97557.47;;;9.06;29.13
10348;BME280;5220;43.192;23.284;2023-03-29T10:18:45;97560.16;;;8.89;28.89
10348;BME280;5220;43.192;23.284;2023-03-29T10:21:14;97558.59;;;9.16;29.78
10348;BME280;5220;43.192;23.284;2023-03-29T10:23:41;97560.38;;;9.30;28.61
10348;BME280;5220;43.192;23.284;2023-03-29T10:26:15;97553.09;;;9.36;29.95
10348;BME280;5220;43.192;23.284;2023-03-29T10:28:43;97559.25;;;9.63;29.46
10348;BME280;5220;43.192;23.284;2023-03-29T10:31:16;97562.47;;;9.53;27.53
10348;BME280;5220;43.192;23.284;2023-03-29T10:33:50;97559.53;;;9.73;28.57
10348;BME280;5220;43.192;23.284;2023-03-29T10:36:20;97556.63;;;9.49;27.80
10348;BME280;5220;43.192;23.284;2023-03-29T10:38:49;97549.88;;;9.75;27.86
10348;BME280;5220;43.192;23.284;2023-03-29T10:41:16;97556.00;;;9.74;28.35
10348;BME280;5220;43.192;23.284;2023-03-29T10:43:44;97549.41;;;9.97;27.99
10348;BME280;5220;43.192;23.284;2023-03-29T10:46:19;97550.63;;;9.77;28.52
10348;BME280;5220;43.192;23.284;2023-03-29T10:48:47;97541.78;;;9.51;27.55
10348;BME280;5220;43.192;23.284;2023-03-29T10:51:16;97539.41;;;9.77;28.42
10348;BME280;5220;43.192;23.284;2023-03-29T10:53:44;97530.47;;;9.95;28.67
10348;BME280;5220;43.192;23.284;2023-03-29T10:56:24;97526.38;;;9.91;27.74
10348;BME280;5220;43.192;23.284;2023-03-29T10:59:12;97527.13;;;10.07;26.80
10348;BME280;5220;43.192;23.284;2023-03-29T11:01:48;97521.31;;;10.17;27.10
10348;BME280;5220;43.192;23.284;2023-03-29T11:04:25;97535.91;;;10.47;28.05
10348;BME280;5220;43.192;23.284;2023-03-29T11:07:14;97536.78;;;10.33;26.27
10348;BME280;5220;43.192;23.284;2023-03-29T11:09:53;97532.50;;;10.32;25.75
10348;BME280;5220;43.192;23.284;2023-03-29T11:12:27;97525.03;;;10.40;26.13
10348;BME280;5220;43.192;23.284;2023-03-29T11:15:06;97522.09;;;10.32;26.00
10348;BME280;5220;43.192;23.284;2023-03-29T11:17:45;97529.72;;;10.35;27.47
10348;BME280;5220;43.192;23.284;2023-03-29T11:20:28;97519.81;;;10.54;26.87
10348;BME280;5220;43.192;23.284;2023-03-29T11:23:06;97528.75;;;10.50;25.39
10348;BME280;5220;43.192;23.284;2023-03-29T11:25:47;97525.25;;;10.37;26.36
10348;BME280;5220;43.192;23.284;2023-03-29T11:28:20;97537.56;;;10.48;26.70
10348;BME280;5220;43.192;23.284;2023-03-29T11:30:54;97528.28;;;10.44;26.90
10348;BME280;5220;43.192;23.284;2023-03-29T11:33:34;97520.00;;;10.78;25.75
10348;BME280;5220;43.192;23.284;2023-03-29T11:36:08;97512.09;;;10.79;26.08
10348;BME280;5220;43.192;23.284;2023-03-29T11:38:39;97500.88;;;10.92;25.11
10348;BME280;5220;43.192;23.284;2023-03-29T11:41:13;97503.41;;;11.06;25.22
10348;BME280;5220;43.192;23.284;2023-03-29T11:43:44;97496.97;;;10.99;25.22
10348;BME280;5220;43.192;23.284;2023-03-29T11:46:16;97506.22;;;11.03;24.88
10348;BME280;5220;43.192;23.284;2023-03-29T11:48:47;97487.94;;;11.29;25.90
10348;BME280;5220;43.192;23.284;2023-03-29T11:51:19;97518.44;;;11.27;24.75
10348;BME280;5220;43.192;23.284;2023-03-29T11:53:55;97510.94;;;11.23;25.20
10348;BME280;5220;43.192;23.284;2023-03-29T11:56:29;97500.53;;;11.23;25.62
10348;BME280;5220;43.192;23.284;2023-03-29T11:59:01;97501.88;;;11.28;25.98
10348;BME280;5220;43.192;23.284;2023-03-29T12:01:32;97495.34;;;11.48;23.41
10348;BME280;5220;43.192;23.284;2023-03-29T12:04:05;97497.63;;;11.53;23.39
10348;BME280;5220;43.192;23.284;2023-03-29T12:06:37;97497.19;;;11.46;22.86
10348;BME280;5220;43.192;23.284;2023-03-29T12:09:09;97495.53;;;11.20;22.38
10348;BME280;5220;43.192;23.284;2023-03-29T12:11:42;97501.78;;;11.55;28.48
10348;BME280;5220;43.192;23.284;2023-03-29T12:14:14;97502.72;;;11.29;22.72
10348;BME280;5220;43.192;23.284;2023-03-29T12:16:45;97504.47;;;11.16;22.51
10348;BME280;5220;43.192;23.284;2023-03-29T12:19:16;97508.56;;;11.20;21.91
10348;BME280;5220;43.192;23.284;2023-03-29T12:21:46;97501.88;;;11.16;21.63
10348;BME280;5220;43.192;23.284;2023-03-29T12:24:15;97501.19;;;11.39;22.66
10348;BME280;5220;43.192;23.284;2023-03-29T12:27:00;97506.16;;;11.29;21.81
10348;BME280;5220;43.192;23.284;2023-03-29T12:29:51;97496.56;;;11.05;21.88
10348;BME280;5220;43.192;23.284;2023-03-29T12:32:34;97488.03;;;11.28;22.12
10348;BME280;5220;43.192;23.284;2023-03-29T12:35:17;97499.91;;;11.19;21.02
10348;BME280;5220;43.192;23.284;2023-03-29T12:37:54;97503.56;;;11.29;21.63
10348;BME280;5220;43.192;23.284;2023-03-29T12:40:25;97499.03;;;11.06;21.31
10348;BME280;5220;43.192;23.284;2023-03-29T12:42:58;97489.38;;;10.69;21.58
10348;BME280;5220;43.192;23.284;2023-03-29T12:45:30;97491.28;;;10.79;22.19
10348;BME280;5220;43.192;23.284;2023-03-29T12:47:58;97491.78;;;11.11;22.59
10348;BME280;5220;43.192;23.284;2023-03-29T12:50:32;97494.59;;;11.08;21.72
10348;BME280;5220;43.192;23.284;2023-03-29T12:53:05;97481.75;;;11.18;23.02
10348;BME280;5220;43.192;23.284;2023-03-29T12:55:46;97475.97;;;11.27;21.82
10348;BME280;5220;43.192;23.284;2023-03-29T12:58:25;97481.25;;;11.13;21.31
10348;BME280;5220;43.192;23.284;2023-03-29T13:01:03;97482.09;;;11.39;22.62
10348;BME280;5220;43.192;23.284;2023-03-29T13:03:40;97471.47;;;11.42;23.00
10348;BME280;5220;43.192;23.284;2023-03-29T13:06:09;97492.28;;;11.16;22.88
10348;BME280;5220;43.192;23.284;2023-03-29T13:08:38;97475.13;;;11.39;22.49
10348;BME280;5220;43.192;23.284;2023-03-29T13:11:10;97481.06;;;11.41;22.58
10348;BME280;5220;43.192;23.284;2023-03-29T13:13:40;97487.75;;;11.45;22.91
10348;BME280;5220;43.192;23.284;2023-03-29T13:16:13;97496.38;;;11.33;21.70
10348;BME280;5220;43.192;23.284;2023-03-29T13:19:01;97487.16;;;11.02;22.78
10348;BME280;5220;43.192;23.284;2023-03-29T13:21:39;97483.56;;;11.30;23.67
10348;BME280;5220;43.192;23.284;2023-03-29T13:24:23;97501.06;;;11.41;21.85
10348;BME280;5220;43.192;23.284;2023-03-29T13:27:01;97483.88;;;11.25;21.09